Terminal Aerodrome Forecast
Issued by NWS

Home | Current Version | Previous Version | Graphics & Text | Print | Product List | Glossary On
Versions: 1 2 3 4 5 6 7 8 9 10 11 12 13 14 15 16 17 18 19
000
FTUS43 KGRB 191100
TAFATW
TAF
KATW 191130Z 1912/2012 30010G15KT P6SM SCT025 OVC035
      TEMPO 1912/1915 BKN025
     FM191500 33012G18KT P6SM FEW030 BKN040
     FM191900 34011G15KT P6SM SCT050
     FM200100 01007KT P6SM SKC=

USA.gov is the U.S. government's official web portal to all federal, state and local government web resources and services.